sensor_id;sensor_type;location;lat;lon;timestamp;P1;durP1;ratioP1;P2;durP2;ratioP2
8323;SDS011;4199;50.802;6.772;2023-02-03T00:00:04;11.90;;;5.07;;
8323;SDS011;4199;50.802;6.772;2023-02-03T00:02:30;7.00;;;4.97;;
8323;SDS011;4199;50.802;6.772;2023-02-03T00:04:57;7.43;;;4.60;;
8323;SDS011;4199;50.802;6.772;2023-02-03T00:07:23;8.90;;;4.83;;
8323;SDS011;4199;50.802;6.772;2023-02-03T00:09:49;8.50;;;4.07;;
8323;SDS011;4199;50.802;6.772;2023-02-03T00:12:15;7.83;;;4.17;;
8323;SDS011;4199;50.802;6.772;2023-02-03T00:14:42;9.20;;;4.80;;
8323;SDS011;4199;50.802;6.772;2023-02-03T00:17:08;6.33;;;4.20;;
8323;SDS011;4199;50.802;6.772;2023-02-03T00:19:35;7.03;;;4.20;;
8323;SDS011;4199;50.802;6.772;2023-02-03T00:22:01;7.60;;;4.30;;
8323;SDS011;4199;50.802;6.772;2023-02-03T00:24:27;9.70;;;4.27;;
8323;SDS011;4199;50.802;6.772;2023-02-03T00:26:53;7.77;;;3.83;;
8323;SDS011;4199;50.802;6.772;2023-02-03T00:29:20;5.47;;;3.43;;
8323;SDS011;4199;50.802;6.772;2023-02-03T00:31:53;6.43;;;3.57;;
8323;SDS011;4199;50.802;6.772;2023-02-03T00:34:20;9.70;;;4.13;;
8323;SDS011;4199;50.802;6.772;2023-02-03T00:36:46;9.13;;;3.60;;
8323;SDS011;4199;50.802;6.772;2023-02-03T00:39:14;7.40;;;3.50;;
8323;SDS011;4199;50.802;6.772;2023-02-03T00:41:40;9.47;;;3.30;;
8323;SDS011;4199;50.802;6.772;2023-02-03T00:44:07;6.00;;;3.43;;
8323;SDS011;4199;50.802;6.772;2023-02-03T00:46:33;9.23;;;3.33;;
8323;SDS011;4199;50.802;6.772;2023-02-03T00:49:02;8.13;;;3.30;;
8323;SDS011;4199;50.802;6.772;2023-02-03T00:51:28;6.47;;;3.40;;
8323;SDS011;4199;50.802;6.772;2023-02-03T00:53:54;6.53;;;3.07;;
8323;SDS011;4199;50.802;6.772;2023-02-03T00:56:21;6.23;;;2.70;;
8323;SDS011;4199;50.802;6.772;2023-02-03T00:58:47;6.20;;;3.10;;
8323;SDS011;4199;50.802;6.772;2023-02-03T01:01:14;9.60;;;2.80;;
8323;SDS011;4199;50.802;6.772;2023-02-03T01:03:40;7.63;;;2.97;;
8323;SDS011;4199;50.802;6.772;2023-02-03T01:06:10;6.60;;;2.97;;
8323;SDS011;4199;50.802;6.772;2023-02-03T01:08:37;6.17;;;3.23;;
8323;SDS011;4199;50.802;6.772;2023-02-03T01:11:10;4.93;;;3.00;;
8323;SDS011;4199;50.802;6.772;2023-02-03T01:13:36;6.30;;;3.53;;
8323;SDS011;4199;50.802;6.772;2023-02-03T01:16:05;7.03;;;2.80;;
8323;SDS011;4199;50.802;6.772;2023-02-03T01:18:32;5.60;;;2.90;;
8323;SDS011;4199;50.802;6.772;2023-02-03T01:21:03;5.13;;;2.80;;
8323;SDS011;4199;50.802;6.772;2023-02-03T01:23:30;4.37;;;2.90;;
8323;SDS011;4199;50.802;6.772;2023-02-03T01:25:56;7.53;;;3.07;;
8323;SDS011;4199;50.802;6.772;2023-02-03T01:28:38;8.23;;;2.90;;
8323;SDS011;4199;50.802;6.772;2023-02-03T01:31:12;6.60;;;3.10;;
8323;SDS011;4199;50.802;6.772;2023-02-03T01:33:38;5.70;;;3.30;;
8323;SDS011;4199;50.802;6.772;2023-02-03T01:36:11;5.60;;;3.30;;
8323;SDS011;4199;50.802;6.772;2023-02-03T01:38:38;7.40;;;3.40;;
8323;SDS011;4199;50.802;6.772;2023-02-03T01:41:05;4.87;;;2.90;;
8323;SDS011;4199;50.802;6.772;2023-02-03T01:43:33;5.57;;;3.10;;
8323;SDS011;4199;50.802;6.772;2023-02-03T01:46:01;6.33;;;3.10;;
8323;SDS011;4199;50.802;6.772;2023-02-03T01:48:28;8.27;;;3.20;;
8323;SDS011;4199;50.802;6.772;2023-02-03T01:50:56;10.60;;;3.57;;
8323;SDS011;4199;50.802;6.772;2023-02-03T01:53:22;5.70;;;3.20;;
8323;SDS011;4199;50.802;6.772;2023-02-03T01:55:49;5.77;;;2.93;;
8323;SDS011;4199;50.802;6.772;2023-02-03T01:58:20;4.80;;;2.70;;
8323;SDS011;4199;50.802;6.772;2023-02-03T02:00:47;5.70;;;3.20;;
8323;SDS011;4199;50.802;6.772;2023-02-03T02:03:14;4.90;;;2.97;;
8323;SDS011;4199;50.802;6.772;2023-02-03T02:06:03;5.13;;;2.80;;
8323;SDS011;4199;50.802;6.772;2023-02-03T02:08:27;5.50;;;2.50;;
8323;SDS011;4199;50.802;6.772;2023-02-03T02:10:54;8.63;;;2.93;;
8323;SDS011;4199;50.802;6.772;2023-02-03T02:13:21;7.13;;;2.70;;
8323;SDS011;4199;50.802;6.772;2023-02-03T02:18:26;5.67;;;2.90;;
8323;SDS011;4199;50.802;6.772;2023-02-03T02:23:37;5.73;;;3.07;;
8323;SDS011;4199;50.802;6.772;2023-02-03T02:28:37;6.77;;;3.17;;
8323;SDS011;4199;50.802;6.772;2023-02-03T02:38:56;4.53;;;2.60;;
8323;SDS011;4199;50.802;6.772;2023-02-03T02:41:29;4.53;;;2.60;;
8323;SDS011;4199;50.802;6.772;2023-02-03T02:43:59;4.63;;;2.50;;
8323;SDS011;4199;50.802;6.772;2023-02-03T02:51:34;4.30;;;2.50;;
8323;SDS011;4199;50.802;6.772;2023-02-03T02:54:02;4.27;;;2.10;;
8323;SDS011;4199;50.802;6.772;2023-02-03T02:56:31;3.40;;;2.10;;
8323;SDS011;4199;50.802;6.772;2023-02-03T02:58:59;6.80;;;2.83;;
8323;SDS011;4199;50.802;6.772;2023-02-03T03:01:26;4.63;;;2.30;;
8323;SDS011;4199;50.802;6.772;2023-02-03T03:03:53;7.13;;;2.60;;
8323;SDS011;4199;50.802;6.772;2023-02-03T03:06:33;3.80;;;2.50;;
8323;SDS011;4199;50.802;6.772;2023-02-03T03:11:36;5.07;;;2.63;;
8323;SDS011;4199;50.802;6.772;2023-02-03T03:14:04;4.97;;;2.70;;
8323;SDS011;4199;50.802;6.772;2023-02-03T03:16:32;9.27;;;3.03;;
8323;SDS011;4199;50.802;6.772;2023-02-03T03:19:01;6.00;;;2.90;;
8323;SDS011;4199;50.802;6.772;2023-02-03T03:21:40;5.03;;;2.60;;
8323;SDS011;4199;50.802;6.772;2023-02-03T03:24:09;8.50;;;2.80;;
8323;SDS011;4199;50.802;6.772;2023-02-03T03:26:44;5.63;;;3.27;;
8323;SDS011;4199;50.802;6.772;2023-02-03T03:29:14;7.03;;;2.90;;
8323;SDS011;4199;50.802;6.772;2023-02-03T03:31:41;5.83;;;3.00;;
8323;SDS011;4199;50.802;6.772;2023-02-03T03:34:08;5.13;;;2.67;;
8323;SDS011;4199;50.802;6.772;2023-02-03T03:36:40;5.27;;;2.97;;
8323;SDS011;4199;50.802;6.772;2023-02-03T03:39:12;4.97;;;2.63;;
8323;SDS011;4199;50.802;6.772;2023-02-03T03:41:42;7.30;;;2.87;;
8323;SDS011;4199;50.802;6.772;2023-02-03T03:44:12;6.83;;;2.93;;
8323;SDS011;4199;50.802;6.772;2023-02-03T03:46:44;4.57;;;2.70;;
8323;SDS011;4199;50.802;6.772;2023-02-03T03:49:12;4.83;;;2.97;;
8323;SDS011;4199;50.802;6.772;2023-02-03T03:51:40;4.93;;;2.90;;
8323;SDS011;4199;50.802;6.772;2023-02-03T03:54:07;4.90;;;3.10;;
8323;SDS011;4199;50.802;6.772;2023-02-03T03:59:25;6.40;;;2.67;;
8323;SDS011;4199;50.802;6.772;2023-02-03T04:01:52;6.10;;;2.50;;
8323;SDS011;4199;50.802;6.772;2023-02-03T04:04:19;4.73;;;2.40;;
8323;SDS011;4199;50.802;6.772;2023-02-03T04:06:45;6.07;;;2.87;;
8323;SDS011;4199;50.802;6.772;2023-02-03T04:09:12;6.93;;;2.70;;
8323;SDS011;4199;50.802;6.772;2023-02-03T04:11:38;5.70;;;2.60;;
8323;SDS011;4199;50.802;6.772;2023-02-03T04:14:23;4.37;;;2.60;;
8323;SDS011;4199;50.802;6.772;2023-02-03T04:16:49;4.10;;;2.60;;
8323;SDS011;4199;50.802;6.772;2023-02-03T04:19:15;4.30;;;2.40;;
8323;SDS011;4199;50.802;6.772;2023-02-03T04:21:42;4.80;;;2.73;;
8323;SDS011;4199;50.802;6.772;2023-02-03T04:24:08;4.53;;;2.20;;
8323;SDS011;4199;50.802;6.772;2023-02-03T04:26:34;5.43;;;2.27;;
8323;SDS011;4199;50.802;6.772;2023-02-03T04:29:01;4.23;;;2.10;;
8323;SDS011;4199;50.802;6.772;2023-02-03T04:31:27;4.63;;;2.30;;
8323;SDS011;4199;50.802;6.772;2023-02-03T04:33:54;7.37;;;2.17;;
8323;SDS011;4199;50.802;6.772;2023-02-03T04:36:20;5.40;;;2.40;;
8323;SDS011;4199;50.802;6.772;2023-02-03T04:38:49;5.93;;;2.10;;
8323;SDS011;4199;50.802;6.772;2023-02-03T04:41:16;7.07;;;2.50;;
8323;SDS011;4199;50.802;6.772;2023-02-03T04:43:42;6.60;;;2.50;;
8323;SDS011;4199;50.802;6.772;2023-02-03T04:46:09;5.17;;;2.87;;
8323;SDS011;4199;50.802;6.772;2023-02-03T04:48:35;5.00;;;2.27;;
8323;SDS011;4199;50.802;6.772;2023-02-03T04:51:03;5.30;;;2.30;;
8323;SDS011;4199;50.802;6.772;2023-02-03T04:53:29;3.93;;;1.90;;
8323;SDS011;4199;50.802;6.772;2023-02-03T04:55:56;6.90;;;2.20;;
8323;SDS011;4199;50.802;6.772;2023-02-03T04:58:22;4.73;;;2.17;;
8323;SDS011;4199;50.802;6.772;2023-02-03T05:00:48;6.23;;;2.33;;
8323;SDS011;4199;50.802;6.772;2023-02-03T05:03:15;3.93;;;2.07;;
8323;SDS011;4199;50.802;6.772;2023-02-03T05:05:41;5.17;;;2.00;;
8323;SDS011;4199;50.802;6.772;2023-02-03T05:08:07;6.60;;;2.60;;
8323;SDS011;4199;50.802;6.772;2023-02-03T05:10:34;6.77;;;2.30;;
8323;SDS011;4199;50.802;6.772;2023-02-03T05:13:00;5.00;;;1.97;;
8323;SDS011;4199;50.802;6.772;2023-02-03T05:15:26;3.87;;;1.80;;
8323;SDS011;4199;50.802;6.772;2023-02-03T05:17:53;5.53;;;2.23;;
8323;SDS011;4199;50.802;6.772;2023-02-03T05:20:20;5.50;;;2.00;;
8323;SDS011;4199;50.802;6.772;2023-02-03T05:22:46;3.93;;;2.00;;
8323;SDS011;4199;50.802;6.772;2023-02-03T05:25:13;3.73;;;1.70;;
8323;SDS011;4199;50.802;6.772;2023-02-03T05:27:39;4.97;;;2.00;;
8323;SDS011;4199;50.802;6.772;2023-02-03T05:30:07;5.33;;;2.47;;
8323;SDS011;4199;50.802;6.772;2023-02-03T05:32:33;4.63;;;1.60;;
8323;SDS011;4199;50.802;6.772;2023-02-03T05:35:00;5.13;;;2.33;;
8323;SDS011;4199;50.802;6.772;2023-02-03T05:37:26;6.80;;;1.90;;
8323;SDS011;4199;50.802;6.772;2023-02-03T05:39:53;4.27;;;1.60;;
8323;SDS011;4199;50.802;6.772;2023-02-03T05:42:39;3.90;;;1.50;;
8323;SDS011;4199;50.802;6.772;2023-02-03T05:45:10;3.17;;;1.70;;
8323;SDS011;4199;50.802;6.772;2023-02-03T05:47:37;4.17;;;1.50;;
8323;SDS011;4199;50.802;6.772;2023-02-03T05:50:03;3.97;;;1.67;;
8323;SDS011;4199;50.802;6.772;2023-02-03T05:52:29;4.00;;;1.83;;
8323;SDS011;4199;50.802;6.772;2023-02-03T05:54:56;6.47;;;1.80;;
8323;SDS011;4199;50.802;6.772;2023-02-03T05:57:22;6.33;;;2.00;;
8323;SDS011;4199;50.802;6.772;2023-02-03T05:59:48;2.87;;;1.47;;
8323;SDS011;4199;50.802;6.772;2023-02-03T06:02:14;6.73;;;1.60;;
8323;SDS011;4199;50.802;6.772;2023-02-03T06:04:41;5.10;;;1.60;;
8323;SDS011;4199;50.802;6.772;2023-02-03T06:07:07;5.27;;;1.60;;
8323;SDS011;4199;50.802;6.772;2023-02-03T06:09:34;4.00;;;1.60;;
8323;SDS011;4199;50.802;6.772;2023-02-03T06:12:00;5.43;;;1.87;;
8323;SDS011;4199;50.802;6.772;2023-02-03T06:14:26;10.00;;;6.53;;
8323;SDS011;4199;50.802;6.772;2023-02-03T06:16:53;2.93;;;1.70;;
8323;SDS011;4199;50.802;6.772;2023-02-03T06:19:19;3.73;;;1.57;;
8323;SDS011;4199;50.802;6.772;2023-02-03T06:21:46;3.00;;;1.40;;
8323;SDS011;4199;50.802;6.772;2023-02-03T06:24:12;3.97;;;1.50;;
8323;SDS011;4199;50.802;6.772;2023-02-03T06:26:38;4.10;;;1.80;;
8323;SDS011;4199;50.802;6.772;2023-02-03T06:29:05;4.70;;;1.70;;
8323;SDS011;4199;50.802;6.772;2023-02-03T06:31:31;3.50;;;1.37;;
8323;SDS011;4199;50.802;6.772;2023-02-03T06:33:57;7.63;;;2.37;;
8323;SDS011;4199;50.802;6.772;2023-02-03T06:36:24;4.87;;;1.50;;
8323;SDS011;4199;50.802;6.772;2023-02-03T06:38:51;8.50;;;4.03;;
8323;SDS011;4199;50.802;6.772;2023-02-03T06:41:17;5.67;;;1.80;;
8323;SDS011;4199;50.802;6.772;2023-02-03T06:43:43;3.67;;;1.70;;
8323;SDS011;4199;50.802;6.772;2023-02-03T06:46:09;6.30;;;1.60;;
8323;SDS011;4199;50.802;6.772;2023-02-03T06:48:36;3.40;;;1.53;;
8323;SDS011;4199;50.802;6.772;2023-02-03T06:51:02;4.17;;;1.50;;
8323;SDS011;4199;50.802;6.772;2023-02-03T06:53:29;5.00;;;2.23;;
8323;SDS011;4199;50.802;6.772;2023-02-03T06:55:55;4.97;;;2.67;;
8323;SDS011;4199;50.802;6.772;2023-02-03T06:58:21;5.40;;;2.13;;
8323;SDS011;4199;50.802;6.772;2023-02-03T07:00:48;3.07;;;1.40;;
8323;SDS011;4199;50.802;6.772;2023-02-03T07:03:14;5.13;;;1.60;;
8323;SDS011;4199;50.802;6.772;2023-02-03T07:05:40;6.70;;;1.53;;
8323;SDS011;4199;50.802;6.772;2023-02-03T07:08:07;4.93;;;1.67;;
8323;SDS011;4199;50.802;6.772;2023-02-03T07:10:33;4.60;;;1.70;;
8323;SDS011;4199;50.802;6.772;2023-02-03T07:13:06;3.67;;;1.50;;
8323;SDS011;4199;50.802;6.772;2023-02-03T07:15:32;6.10;;;3.43;;
8323;SDS011;4199;50.802;6.772;2023-02-03T07:17:59;4.57;;;1.90;;
8323;SDS011;4199;50.802;6.772;2023-02-03T07:20:25;4.70;;;2.20;;
8323;SDS011;4199;50.802;6.772;2023-02-03T07:22:55;4.53;;;2.40;;
8323;SDS011;4199;50.802;6.772;2023-02-03T07:25:22;8.20;;;4.13;;
8323;SDS011;4199;50.802;6.772;2023-02-03T07:27:49;4.43;;;1.90;;
8323;SDS011;4199;50.802;6.772;2023-02-03T07:30:15;6.70;;;2.50;;
8323;SDS011;4199;50.802;6.772;2023-02-03T07:32:45;7.23;;;3.40;;
8323;SDS011;4199;50.802;6.772;2023-02-03T07:35:11;5.00;;;2.40;;
8323;SDS011;4199;50.802;6.772;2023-02-03T07:37:38;4.53;;;1.47;;
8323;SDS011;4199;50.802;6.772;2023-02-03T07:40:04;5.10;;;1.30;;
8323;SDS011;4199;50.802;6.772;2023-02-03T07:42:30;4.27;;;1.33;;
8323;SDS011;4199;50.802;6.772;2023-02-03T07:44:57;5.23;;;1.60;;
8323;SDS011;4199;50.802;6.772;2023-02-03T07:47:23;3.60;;;1.43;;
8323;SDS011;4199;50.802;6.772;2023-02-03T07:49:49;4.50;;;1.50;;
8323;SDS011;4199;50.802;6.772;2023-02-03T07:52:16;2.83;;;1.30;;
8323;SDS011;4199;50.802;6.772;2023-02-03T07:54:42;3.13;;;1.30;;
8323;SDS011;4199;50.802;6.772;2023-02-03T07:57:08;4.00;;;1.70;;
8323;SDS011;4199;50.802;6.772;2023-02-03T07:59:35;3.17;;;1.80;;
8323;SDS011;4199;50.802;6.772;2023-02-03T08:02:01;3.23;;;1.30;;
8323;SDS011;4199;50.802;6.772;2023-02-03T08:04:27;3.53;;;1.40;;
8323;SDS011;4199;50.802;6.772;2023-02-03T08:06:54;3.37;;;1.30;;
8323;SDS011;4199;50.802;6.772;2023-02-03T08:09:20;5.00;;;1.30;;
8323;SDS011;4199;50.802;6.772;2023-02-03T08:11:46;2.60;;;1.20;;
8323;SDS011;4199;50.802;6.772;2023-02-03T08:14:13;2.50;;;1.03;;
8323;SDS011;4199;50.802;6.772;2023-02-03T08:16:58;3.43;;;1.20;;
8323;SDS011;4199;50.802;6.772;2023-02-03T08:19:24;2.73;;;1.33;;
8323;SDS011;4199;50.802;6.772;2023-02-03T08:21:51;3.77;;;1.17;;
8323;SDS011;4199;50.802;6.772;2023-02-03T08:24:17;3.90;;;1.50;;
8323;SDS011;4199;50.802;6.772;2023-02-03T08:26:43;3.77;;;1.70;;
8323;SDS011;4199;50.802;6.772;2023-02-03T08:29:10;3.77;;;1.33;;
8323;SDS011;4199;50.802;6.772;2023-02-03T08:31:36;5.03;;;1.20;;
8323;SDS011;4199;50.802;6.772;2023-02-03T08:34:03;3.90;;;2.10;;
8323;SDS011;4199;50.802;6.772;2023-02-03T08:36:30;5.43;;;1.60;;
8323;SDS011;4199;50.802;6.772;2023-02-03T08:38:56;2.10;;;1.30;;
8323;SDS011;4199;50.802;6.772;2023-02-03T08:41:23;3.37;;;1.33;;
8323;SDS011;4199;50.802;6.772;2023-02-03T08:43:49;2.60;;;1.30;;
8323;SDS011;4199;50.802;6.772;2023-02-03T08:46:16;2.67;;;1.43;;
8323;SDS011;4199;50.802;6.772;2023-02-03T08:48:42;2.90;;;1.27;;
8323;SDS011;4199;50.802;6.772;2023-02-03T08:51:09;5.47;;;1.87;;
8323;SDS011;4199;50.802;6.772;2023-02-03T08:53:36;3.70;;;1.33;;
8323;SDS011;4199;50.802;6.772;2023-02-03T08:56:04;4.07;;;1.20;;
8323;SDS011;4199;50.802;6.772;2023-02-03T08:58:30;1.77;;;1.17;;
8323;SDS011;4199;50.802;6.772;2023-02-03T09:01:15;4.30;;;1.40;;
8323;SDS011;4199;50.802;6.772;2023-02-03T09:03:42;4.10;;;1.40;;
8323;SDS011;4199;50.802;6.772;2023-02-03T09:06:08;3.67;;;1.10;;
8323;SDS011;4199;50.802;6.772;2023-02-03T09:08:36;2.67;;;1.40;;
8323;SDS011;4199;50.802;6.772;2023-02-03T09:11:07;4.73;;;1.27;;
8323;SDS011;4199;50.802;6.772;2023-02-03T09:13:33;5.23;;;1.30;;
8323;SDS011;4199;50.802;6.772;2023-02-03T09:15:59;2.90;;;1.40;;
8323;SDS011;4199;50.802;6.772;2023-02-03T09:18:26;1.50;;;1.27;;
8323;SDS011;4199;50.802;6.772;2023-02-03T09:20:58;3.07;;;1.40;;
8323;SDS011;4199;50.802;6.772;2023-02-03T09:23:25;2.70;;;1.17;;
8323;SDS011;4199;50.802;6.772;2023-02-03T09:25:51;3.73;;;1.30;;
8323;SDS011;4199;50.802;6.772;2023-02-03T09:28:17;5.63;;;1.70;;
8323;SDS011;4199;50.802;6.772;2023-02-03T09:30:43;4.37;;;1.60;;
8323;SDS011;4199;50.802;6.772;2023-02-03T09:33:10;4.17;;;1.87;;
8323;SDS011;4199;50.802;6.772;2023-02-03T09:35:36;4.93;;;1.70;;
8323;SDS011;4199;50.802;6.772;2023-02-03T09:38:02;3.03;;;1.70;;
8323;SDS011;4199;50.802;6.772;2023-02-03T09:40:33;4.57;;;1.60;;
8323;SDS011;4199;50.802;6.772;2023-02-03T09:43:23;4.77;;;1.47;;
8323;SDS011;4199;50.802;6.772;2023-02-03T09:45:46;2.43;;;1.37;;
8323;SDS011;4199;50.802;6.772;2023-02-03T09:48:18;3.90;;;1.43;;
8323;SDS011;4199;50.802;6.772;2023-02-03T09:50:46;3.77;;;1.50;;
8323;SDS011;4199;50.802;6.772;2023-02-03T09:53:18;4.47;;;2.00;;
8323;SDS011;4199;50.802;6.772;2023-02-03T09:55:48;4.10;;;1.67;;
8323;SDS011;4199;50.802;6.772;2023-02-03T09:58:15;4.23;;;1.60;;
8323;SDS011;4199;50.802;6.772;2023-02-03T10:00:50;6.23;;;1.83;;
8323;SDS011;4199;50.802;6.772;2023-02-03T10:03:24;3.67;;;2.00;;
8323;SDS011;4199;50.802;6.772;2023-02-03T10:05:57;3.33;;;1.60;;
8323;SDS011;4199;50.802;6.772;2023-02-03T10:11:55;4.00;;;1.90;;
8323;SDS011;4199;50.802;6.772;2023-02-03T10:14:35;3.30;;;1.70;;
8323;SDS011;4199;50.802;6.772;2023-02-03T10:19:54;5.03;;;1.67;;
8323;SDS011;4199;50.802;6.772;2023-02-03T10:22:23;4.50;;;1.83;;
8323;SDS011;4199;50.802;6.772;2023-02-03T10:24:54;4.57;;;1.97;;
8323;SDS011;4199;50.802;6.772;2023-02-03T10:27:23;4.60;;;1.77;;
8323;SDS011;4199;50.802;6.772;2023-02-03T10:29:55;2.80;;;1.70;;
8323;SDS011;4199;50.802;6.772;2023-02-03T10:32:23;3.47;;;1.77;;
8323;SDS011;4199;50.802;6.772;2023-02-03T10:34:51;3.03;;;1.83;;
8323;SDS011;4199;50.802;6.772;2023-02-03T10:37:28;2.40;;;1.67;;
8323;SDS011;4199;50.802;6.772;2023-02-03T10:39:56;3.80;;;2.07;;
8323;SDS011;4199;50.802;6.772;2023-02-03T10:42:23;5.60;;;2.13;;
8323;SDS011;4199;50.802;6.772;2023-02-03T10:44:57;4.03;;;1.90;;
8323;SDS011;4199;50.802;6.772;2023-02-03T10:47:33;4.67;;;2.17;;
8323;SDS011;4199;50.802;6.772;2023-02-03T10:50:05;2.80;;;1.80;;
8323;SDS011;4199;50.802;6.772;2023-02-03T10:52:51;3.37;;;2.00;;
8323;SDS011;4199;50.802;6.772;2023-02-03T10:56:03;3.83;;;2.10;;
8323;SDS011;4199;50.802;6.772;2023-02-03T10:58:30;4.47;;;2.47;;
8323;SDS011;4199;50.802;6.772;2023-02-03T11:03:34;4.00;;;2.60;;
8323;SDS011;4199;50.802;6.772;2023-02-03T11:08:30;5.90;;;2.13;;
8323;SDS011;4199;50.802;6.772;2023-02-03T11:11:00;4.30;;;2.30;;
8323;SDS011;4199;50.802;6.772;2023-02-03T11:13:27;4.67;;;2.30;;
8323;SDS011;4199;50.802;6.772;2023-02-03T11:18:24;2.97;;;2.43;;
8323;SDS011;4199;50.802;6.772;2023-02-03T11:20:51;3.57;;;2.00;;
8323;SDS011;4199;50.802;6.772;2023-02-03T11:23:18;2.90;;;2.33;;
8323;SDS011;4199;50.802;6.772;2023-02-03T11:25:47;4.40;;;2.40;;
8323;SDS011;4199;50.802;6.772;2023-02-03T11:28:13;3.43;;;2.00;;
8323;SDS011;4199;50.802;6.772;2023-02-03T11:30:40;3.63;;;2.10;;
8323;SDS011;4199;50.802;6.772;2023-02-03T11:33:15;2.77;;;2.20;;
8323;SDS011;4199;50.802;6.772;2023-02-03T11:35:53;4.53;;;2.57;;
8323;SDS011;4199;50.802;6.772;2023-02-03T11:38:31;5.80;;;2.07;;
8323;SDS011;4199;50.802;6.772;2023-02-03T11:40:58;2.40;;;2.20;;
8323;SDS011;4199;50.802;6.772;2023-02-03T11:43:26;3.10;;;2.50;;
8323;SDS011;4199;50.802;6.772;2023-02-03T11:45:58;6.10;;;2.90;;
8323;SDS011;4199;50.802;6.772;2023-02-03T11:48:28;2.97;;;2.40;;
8323;SDS011;4199;50.802;6.772;2023-02-03T11:53:36;4.27;;;2.50;;
8323;SDS011;4199;50.802;6.772;2023-02-03T11:58:55;9.10;;;4.27;;
8323;SDS011;4199;50.802;6.772;2023-02-03T12:11:33;3.30;;;3.00;;
8323;SDS011;4199;50.802;6.772;2023-02-03T12:14:07;5.67;;;3.20;;
8323;SDS011;4199;50.802;6.772;2023-02-03T12:16:53;4.93;;;3.40;;
8323;SDS011;4199;50.802;6.772;2023-02-03T12:19:34;4.73;;;3.50;;
8323;SDS011;4199;50.802;6.772;2023-02-03T12:27:40;5.50;;;4.40;;
8323;SDS011;4199;50.802;6.772;2023-02-03T12:30:13;5.37;;;4.00;;
8323;SDS011;4199;50.802;6.772;2023-02-03T12:35:24;5.60;;;4.00;;
8323;SDS011;4199;50.802;6.772;2023-02-03T12:38:06;5.97;;;3.80;;
8323;SDS011;4199;50.802;6.772;2023-02-03T12:40:36;5.83;;;3.87;;
8323;SDS011;4199;50.802;6.772;2023-02-03T12:43:23;5.83;;;4.37;;
8323;SDS011;4199;50.802;6.772;2023-02-03T12:45:52;9.37;;;4.80;;
8323;SDS011;4199;50.802;6.772;2023-02-03T12:48:21;6.03;;;4.87;;
8323;SDS011;4199;50.802;6.772;2023-02-03T12:50:49;7.07;;;4.97;;
8323;SDS011;4199;50.802;6.772;2023-02-03T12:53:20;7.17;;;4.97;;
8323;SDS011;4199;50.802;6.772;2023-02-03T12:55:51;8.93;;;5.40;;
8323;SDS011;4199;50.802;6.772;2023-02-03T12:58:24;8.47;;;5.50;;
8323;SDS011;4199;50.802;6.772;2023-02-03T13:00:53;8.23;;;5.53;;
8323;SDS011;4199;50.802;6.772;2023-02-03T13:08:45;9.47;;;5.90;;
8323;SDS011;4199;50.802;6.772;2023-02-03T13:14:01;8.27;;;6.33;;
8323;SDS011;4199;50.802;6.772;2023-02-03T13:16:31;11.57;;;6.30;;
8323;SDS011;4199;50.802;6.772;2023-02-03T13:18:59;9.50;;;6.73;;
8323;SDS011;4199;50.802;6.772;2023-02-03T13:21:27;9.53;;;6.30;;
8323;SDS011;4199;50.802;6.772;2023-02-03T13:23:54;9.90;;;6.53;;
8323;SDS011;4199;50.802;6.772;2023-02-03T13:31:25;11.83;;;7.77;;
8323;SDS011;4199;50.802;6.772;2023-02-03T13:36:45;9.27;;;7.53;;
8323;SDS011;4199;50.802;6.772;2023-02-03T13:39:27;13.73;;;8.70;;
8323;SDS011;4199;50.802;6.772;2023-02-03T13:42:07;9.50;;;7.63;;
8323;SDS011;4199;50.802;6.772;2023-02-03T13:44:35;12.20;;;8.10;;
8323;SDS011;4199;50.802;6.772;2023-02-03T13:47:02;11.20;;;8.20;;
8323;SDS011;4199;50.802;6.772;2023-02-03T13:49:30;12.13;;;8.03;;
8323;SDS011;4199;50.802;6.772;2023-02-03T13:51:57;12.33;;;7.83;;
8323;SDS011;4199;50.802;6.772;2023-02-03T13:54:28;13.63;;;8.60;;
8323;SDS011;4199;50.802;6.772;2023-02-03T13:57:00;13.07;;;8.50;;
8323;SDS011;4199;50.802;6.772;2023-02-03T13:59:29;12.87;;;8.70;;
8323;SDS011;4199;50.802;6.772;2023-02-03T14:09:45;17.20;;;9.83;;
8323;SDS011;4199;50.802;6.772;2023-02-03T14:17:03;13.50;;;8.87;;
8323;SDS011;4199;50.802;6.772;2023-02-03T14:22:01;12.67;;;9.00;;
8323;SDS011;4199;50.802;6.772;2023-02-03T14:24:29;14.30;;;8.80;;
8323;SDS011;4199;50.802;6.772;2023-02-03T14:26:57;12.57;;;9.83;;
8323;SDS011;4199;50.802;6.772;2023-02-03T14:29:31;12.70;;;9.90;;
8323;SDS011;4199;50.802;6.772;2023-02-03T14:32:00;12.03;;;8.50;;
8323;SDS011;4199;50.802;6.772;2023-02-03T14:39:46;11.67;;;9.50;;
8323;SDS011;4199;50.802;6.772;2023-02-03T14:42:22;12.90;;;10.40;;
8323;SDS011;4199;50.802;6.772;2023-02-03T14:44:59;11.97;;;9.83;;
8323;SDS011;4199;50.802;6.772;2023-02-03T14:52:32;13.30;;;9.97;;
8323;SDS011;4199;50.802;6.772;2023-02-03T14:57:33;15.23;;;10.67;;
8323;SDS011;4199;50.802;6.772;2023-02-03T15:00:01;17.20;;;10.90;;
8323;SDS011;4199;50.802;6.772;2023-02-03T15:02:31;14.90;;;10.80;;
8323;SDS011;4199;50.802;6.772;2023-02-03T15:07:38;13.13;;;10.47;;
8323;SDS011;4199;50.802;6.772;2023-02-03T15:12:43;13.37;;;10.33;;
8323;SDS011;4199;50.802;6.772;2023-02-03T15:15:23;14.93;;;10.40;;
8323;SDS011;4199;50.802;6.772;2023-02-03T15:17:50;13.70;;;10.73;;
8323;SDS011;4199;50.802;6.772;2023-02-03T15:26:43;12.97;;;10.40;;
8323;SDS011;4199;50.802;6.772;2023-02-03T15:29:00;13.47;;;10.13;;
8323;SDS011;4199;50.802;6.772;2023-02-03T15:31:36;12.73;;;9.77;;
8323;SDS011;4199;50.802;6.772;2023-02-03T15:36:49;11.30;;;9.63;;
8323;SDS011;4199;50.802;6.772;2023-02-03T15:42:04;12.97;;;9.67;;
8323;SDS011;4199;50.802;6.772;2023-02-03T15:44:40;11.57;;;9.20;;
8323;SDS011;4199;50.802;6.772;2023-02-03T15:47:15;13.60;;;9.70;;
8323;SDS011;4199;50.802;6.772;2023-02-03T15:49:44;16.23;;;11.43;;
8323;SDS011;4199;50.802;6.772;2023-02-03T15:52:13;34.90;;;23.30;;
8323;SDS011;4199;50.802;6.772;2023-02-03T15:54:42;10.70;;;9.00;;
8323;SDS011;4199;50.802;6.772;2023-02-03T15:57:15;14.43;;;9.57;;
8323;SDS011;4199;50.802;6.772;2023-02-03T15:59:43;12.37;;;9.07;;
8323;SDS011;4199;50.802;6.772;2023-02-03T16:02:19;14.23;;;9.10;;
8323;SDS011;4199;50.802;6.772;2023-02-03T16:04:46;12.07;;;8.70;;
8323;SDS011;4199;50.802;6.772;2023-02-03T16:07:19;11.23;;;9.30;;
8323;SDS011;4199;50.802;6.772;2023-02-03T16:09:46;12.47;;;9.47;;
8323;SDS011;4199;50.802;6.772;2023-02-03T16:12:22;15.10;;;9.67;;
8323;SDS011;4199;50.802;6.772;2023-02-03T16:14:49;13.03;;;9.40;;
8323;SDS011;4199;50.802;6.772;2023-02-03T16:17:36;14.93;;;9.53;;
8323;SDS011;4199;50.802;6.772;2023-02-03T16:22:36;12.53;;;9.63;;
8323;SDS011;4199;50.802;6.772;2023-02-03T16:25:20;14.37;;;9.63;;
8323;SDS011;4199;50.802;6.772;2023-02-03T16:27:59;13.33;;;9.60;;
8323;SDS011;4199;50.802;6.772;2023-02-03T16:30:58;11.70;;;8.57;;
8323;SDS011;4199;50.802;6.772;2023-02-03T16:33:48;12.80;;;9.47;;
8323;SDS011;4199;50.802;6.772;2023-02-03T16:36:33;12.27;;;9.00;;
8323;SDS011;4199;50.802;6.772;2023-02-03T16:39:24;14.17;;;9.40;;
8323;SDS011;4199;50.802;6.772;2023-02-03T16:42:20;13.27;;;9.23;;
8323;SDS011;4199;50.802;6.772;2023-02-03T16:45:09;12.43;;;9.10;;
8323;SDS011;4199;50.802;6.772;2023-02-03T16:47:56;12.97;;;9.20;;
8323;SDS011;4199;50.802;6.772;2023-02-03T16:50:41;13.77;;;9.53;;
8323;SDS011;4199;50.802;6.772;2023-02-03T16:53:25;13.67;;;9.30;;
8323;SDS011;4199;50.802;6.772;2023-02-03T16:55:53;15.07;;;9.60;;
8323;SDS011;4199;50.802;6.772;2023-02-03T16:58:20;12.23;;;9.17;;
8323;SDS011;4199;50.802;6.772;2023-02-03T17:00:50;11.67;;;9.53;;
8323;SDS011;4199;50.802;6.772;2023-02-03T17:03:18;15.33;;;9.50;;
8323;SDS011;4199;50.802;6.772;2023-02-03T17:05:45;16.00;;;10.13;;
8323;SDS011;4199;50.802;6.772;2023-02-03T17:08:12;16.57;;;10.53;;
8323;SDS011;4199;50.802;6.772;2023-02-03T17:10:40;16.13;;;10.60;;
8323;SDS011;4199;50.802;6.772;2023-02-03T17:13:07;18.50;;;11.03;;
8323;SDS011;4199;50.802;6.772;2023-02-03T17:15:34;21.50;;;11.83;;
8323;SDS011;4199;50.802;6.772;2023-02-03T17:18:00;16.57;;;11.20;;
8323;SDS011;4199;50.802;6.772;2023-02-03T17:20:26;20.13;;;11.50;;
8323;SDS011;4199;50.802;6.772;2023-02-03T17:22:52;17.50;;;12.07;;
8323;SDS011;4199;50.802;6.772;2023-02-03T17:25:20;15.70;;;10.93;;
8323;SDS011;4199;50.802;6.772;2023-02-03T17:27:46;17.33;;;11.80;;
8323;SDS011;4199;50.802;6.772;2023-02-03T17:30:13;18.77;;;11.47;;
8323;SDS011;4199;50.802;6.772;2023-02-03T17:32:39;17.83;;;11.27;;